CMA CGM Aristote — MRPN4 — position and weather

sailwx.info

Track history (hours):
 
Tides and Currents Weather Stations Pressure Air Temp Water Temp Dewpoint Dewpoint Depression Visibility Wind Speed Wind Dir Waves Ship Positions

CMA CGM Aristote

Last reported at 2014-Jul-30 07:30 UTC. Time now 2014-Jul-30 13:17 UTC.
Position N 49°20' W 004°09'.

Length 170 m; draft 6.4 m.

Type: Ship (hazmat cat A). MMSI: 235054581.

Date/timePositionNaut miles runAvg speedWind from/ knotsBaromVisibWave heightAir tempDewpointWater temp
2014-Jul-30 07:30N 49°20' W 004°09'54917.7
2014-Jul-29 00:33N 41°07' W 009°51'1616.5
2014-Jul-28 23:33N 40°50' W 009°52'1916.5
2014-Jul-28 22:23N 40°31' W 009°53'10617.8
2014-Jul-28 16:27N 38°45' W 009°51'1618.4
2014-Jul-28 15:33N 38°29' W 009°47'2518.8
2014-Jul-28 14:13N 38°05' W 009°42'1218.8
2014-Jul-28 13:33N 37°52' W 009°39'1919.0
2014-Jul-28 12:33N 37°34' W 009°33'2118.7
2014-Jul-28 11:26N 37°13' W 009°27'1718.8
2014-Jul-28 10:33N 36°57' W 009°22'2218.3
2014-Jul-28 09:21N 36°44' W 009°00'1518.8
2014-Jul-28 08:33N 36°40' W 008°42'1918.9
2014-Jul-28 07:34N 36°34' W 008°20'1817.9
2014-Jul-28 06:34N 36°28' W 007°59'2418.3
2014-Jul-28 05:16N 36°20' W 007°31'3118.2
2014-Jul-28 03:33N 36°09' W 006°55'71 5.5
2014-Jul-27 14:32N 35°58' W 005°28'5215.3
2014-Jul-27 11:09N 35°41' W 006°28'915.7
2014-Jul-27 10:33N 35°35' W 006°37'20217.9
2014-Jul-26 23:17N 33°05' W 009°21'  
Track history (hours):
 
Tides and Currents Weather Stations Pressure Air Temp Water Temp Dewpoint Dewpoint Depression Visibility Wind Speed Wind Dir Waves Ship Positions

CMA CGM Aristote

Last reported at 2014-Jul-30 07:30 UTC. Time now 2014-Jul-30 13:17 UTC.
Position N 49°20' W 004°09'.

Length 170 m; draft 6.4 m.

Type: Ship (hazmat cat A). MMSI: 235054581.

Date/timePositionNaut miles runAvg speedWind from/ knotsBaromVisibWave heightAir tempDewpointWater temp
2014-Jul-30 07:30N 49°20' W 004°09'54917.7
2014-Jul-29 00:33N 41°07' W 009°51'1616.5
2014-Jul-28 23:33N 40°50' W 009°52'1916.5
2014-Jul-28 22:23N 40°31' W 009°53'10617.8
2014-Jul-28 16:27N 38°45' W 009°51'1618.4
2014-Jul-28 15:33N 38°29' W 009°47'2518.8
2014-Jul-28 14:13N 38°05' W 009°42'1218.8
2014-Jul-28 13:33N 37°52' W 009°39'1919.0
2014-Jul-28 12:33N 37°34' W 009°33'2118.7
2014-Jul-28 11:26N 37°13' W 009°27'1718.8
2014-Jul-28 10:33N 36°57' W 009°22'2218.3
2014-Jul-28 09:21N 36°44' W 009°00'1518.8
2014-Jul-28 08:33N 36°40' W 008°42'1918.9
2014-Jul-28 07:34N 36°34' W 008°20'1817.9
2014-Jul-28 06:34N 36°28' W 007°59'2418.3
2014-Jul-28 05:16N 36°20' W 007°31'3118.2
2014-Jul-28 03:33N 36°09' W 006°55'71 5.5
2014-Jul-27 14:32N 35°58' W 005°28'5215.3
2014-Jul-27 11:09N 35°41' W 006°28'915.7
2014-Jul-27 10:33N 35°35' W 006°37'20217.9
2014-Jul-26 23:17N 33°05' W 009°21'  

Dump ship's entire track history